sensor_id;sensor_type;location;lat;lon;timestamp;P1;durP1;ratioP1;P2;durP2;ratioP2
72728;SDS011;60843;52.062;4.508;2023-06-22T00:01:26;25.55;;;11.82;;
72728;SDS011;60843;52.062;4.508;2023-06-22T00:03:52;23.70;;;12.13;;
72728;SDS011;60843;52.062;4.508;2023-06-22T00:06:17;24.35;;;12.68;;
72728;SDS011;60843;52.062;4.508;2023-06-22T00:08:43;22.48;;;12.80;;
72728;SDS011;60843;52.062;4.508;2023-06-22T00:11:08;26.38;;;12.98;;
72728;SDS011;60843;52.062;4.508;2023-06-22T00:13:34;24.70;;;13.70;;
72728;SDS011;60843;52.062;4.508;2023-06-22T00:15:59;22.25;;;12.63;;
72728;SDS011;60843;52.062;4.508;2023-06-22T00:18:24;25.10;;;13.33;;
72728;SDS011;60843;52.062;4.508;2023-06-22T00:20:53;23.85;;;13.18;;
72728;SDS011;60843;52.062;4.508;2023-06-22T00:23:22;24.23;;;12.68;;
72728;SDS011;60843;52.062;4.508;2023-06-22T00:25:48;24.10;;;13.52;;
72728;SDS011;60843;52.062;4.508;2023-06-22T00:28:14;27.98;;;12.90;;
72728;SDS011;60843;52.062;4.508;2023-06-22T00:30:39;21.63;;;12.68;;
72728;SDS011;60843;52.062;4.508;2023-06-22T00:33:05;21.55;;;11.75;;
72728;SDS011;60843;52.062;4.508;2023-06-22T00:35:32;24.55;;;13.05;;
72728;SDS011;60843;52.062;4.508;2023-06-22T00:37:58;26.65;;;13.02;;
72728;SDS011;60843;52.062;4.508;2023-06-22T00:40:29;29.27;;;13.10;;
72728;SDS011;60843;52.062;4.508;2023-06-22T00:42:54;23.85;;;12.77;;
72728;SDS011;60843;52.062;4.508;2023-06-22T00:45:21;27.05;;;14.38;;
72728;SDS011;60843;52.062;4.508;2023-06-22T00:47:48;28.10;;;14.40;;
72728;SDS011;60843;52.062;4.508;2023-06-22T00:50:18;29.90;;;14.23;;
72728;SDS011;60843;52.062;4.508;2023-06-22T00:52:47;30.58;;;14.68;;
72728;SDS011;60843;52.062;4.508;2023-06-22T00:55:14;29.50;;;14.90;;
72728;SDS011;60843;52.062;4.508;2023-06-22T00:57:42;32.67;;;15.35;;
72728;SDS011;60843;52.062;4.508;2023-06-22T01:00:10;31.15;;;15.15;;
72728;SDS011;60843;52.062;4.508;2023-06-22T01:02:36;31.25;;;15.82;;
72728;SDS011;60843;52.062;4.508;2023-06-22T01:05:03;31.45;;;15.65;;
72728;SDS011;60843;52.062;4.508;2023-06-22T01:07:31;27.98;;;14.90;;
72728;SDS011;60843;52.062;4.508;2023-06-22T01:12:38;31.48;;;15.63;;
72728;SDS011;60843;52.062;4.508;2023-06-22T01:15:10;30.63;;;16.17;;
72728;SDS011;60843;52.062;4.508;2023-06-22T01:17:39;34.55;;;16.02;;
72728;SDS011;60843;52.062;4.508;2023-06-22T01:20:06;32.80;;;15.77;;
72728;SDS011;60843;52.062;4.508;2023-06-22T01:22:36;38.88;;;17.15;;
72728;SDS011;60843;52.062;4.508;2023-06-22T01:25:12;34.47;;;17.17;;
72728;SDS011;60843;52.062;4.508;2023-06-22T01:30:18;31.25;;;16.05;;
72728;SDS011;60843;52.062;4.508;2023-06-22T01:32:44;34.78;;;16.77;;
72728;SDS011;60843;52.062;4.508;2023-06-22T01:35:09;37.80;;;17.48;;
72728;SDS011;60843;52.062;4.508;2023-06-22T01:37:35;30.88;;;15.57;;
72728;SDS011;60843;52.062;4.508;2023-06-22T01:40:02;36.10;;;16.30;;
72728;SDS011;60843;52.062;4.508;2023-06-22T01:42:30;32.72;;;16.25;;
72728;SDS011;60843;52.062;4.508;2023-06-22T01:44:56;30.40;;;14.70;;
72728;SDS011;60843;52.062;4.508;2023-06-22T01:47:22;32.65;;;15.77;;
72728;SDS011;60843;52.062;4.508;2023-06-22T01:49:48;36.00;;;16.67;;
72728;SDS011;60843;52.062;4.508;2023-06-22T01:52:14;33.30;;;16.85;;
72728;SDS011;60843;52.062;4.508;2023-06-22T01:54:39;31.88;;;16.38;;
72728;SDS011;60843;52.062;4.508;2023-06-22T01:57:05;35.55;;;16.15;;
72728;SDS011;60843;52.062;4.508;2023-06-22T01:59:38;38.03;;;17.25;;
72728;SDS011;60843;52.062;4.508;2023-06-22T02:02:09;32.33;;;16.65;;
72728;SDS011;60843;52.062;4.508;2023-06-22T02:04:54;33.85;;;16.80;;
72728;SDS011;60843;52.062;4.508;2023-06-22T02:07:23;35.50;;;16.58;;
72728;SDS011;60843;52.062;4.508;2023-06-22T02:09:49;37.55;;;17.63;;
72728;SDS011;60843;52.062;4.508;2023-06-22T02:12:17;34.97;;;16.95;;
72728;SDS011;60843;52.062;4.508;2023-06-22T02:14:44;38.60;;;17.25;;
72728;SDS011;60843;52.062;4.508;2023-06-22T02:17:11;38.95;;;18.30;;
72728;SDS011;60843;52.062;4.508;2023-06-22T02:19:37;36.55;;;17.88;;
72728;SDS011;60843;52.062;4.508;2023-06-22T02:22:04;37.00;;;17.98;;
72728;SDS011;60843;52.062;4.508;2023-06-22T02:24:29;35.53;;;17.85;;
72728;SDS011;60843;52.062;4.508;2023-06-22T02:27:00;37.22;;;16.95;;
72728;SDS011;60843;52.062;4.508;2023-06-22T02:29:26;41.20;;;17.90;;
72728;SDS011;60843;52.062;4.508;2023-06-22T02:31:52;36.55;;;17.90;;
72728;SDS011;60843;52.062;4.508;2023-06-22T02:34:18;35.90;;;18.05;;
72728;SDS011;60843;52.062;4.508;2023-06-22T02:36:44;38.55;;;18.05;;
72728;SDS011;60843;52.062;4.508;2023-06-22T02:39:16;38.58;;;17.98;;
72728;SDS011;60843;52.062;4.508;2023-06-22T02:41:45;42.53;;;18.35;;
72728;SDS011;60843;52.062;4.508;2023-06-22T02:44:10;39.37;;;18.97;;
72728;SDS011;60843;52.062;4.508;2023-06-22T02:46:35;39.25;;;18.63;;
72728;SDS011;60843;52.062;4.508;2023-06-22T02:49:01;37.60;;;19.63;;
72728;SDS011;60843;52.062;4.508;2023-06-22T02:51:26;40.25;;;18.27;;
72728;SDS011;60843;52.062;4.508;2023-06-22T02:53:52;42.20;;;19.60;;
72728;SDS011;60843;52.062;4.508;2023-06-22T02:56:22;40.13;;;19.27;;
72728;SDS011;60843;52.062;4.508;2023-06-22T02:58:50;41.60;;;19.67;;
72728;SDS011;60843;52.062;4.508;2023-06-22T03:01:16;41.25;;;19.90;;
72728;SDS011;60843;52.062;4.508;2023-06-22T03:03:46;38.28;;;18.88;;
72728;SDS011;60843;52.062;4.508;2023-06-22T03:06:11;38.83;;;19.65;;
72728;SDS011;60843;52.062;4.508;2023-06-22T03:08:39;43.90;;;19.95;;
72728;SDS011;60843;52.062;4.508;2023-06-22T03:11:04;41.67;;;19.67;;
72728;SDS011;60843;52.062;4.508;2023-06-22T03:13:29;42.60;;;20.77;;
72728;SDS011;60843;52.062;4.508;2023-06-22T03:15:55;44.53;;;20.10;;
72728;SDS011;60843;52.062;4.508;2023-06-22T03:18:20;40.00;;;19.65;;
72728;SDS011;60843;52.062;4.508;2023-06-22T03:20:47;43.28;;;19.95;;
72728;SDS011;60843;52.062;4.508;2023-06-22T03:23:13;46.88;;;20.75;;
72728;SDS011;60843;52.062;4.508;2023-06-22T03:25:40;43.63;;;20.27;;
72728;SDS011;60843;52.062;4.508;2023-06-22T03:28:07;41.53;;;19.80;;
72728;SDS011;60843;52.062;4.508;2023-06-22T03:30:33;44.50;;;21.40;;
72728;SDS011;60843;52.062;4.508;2023-06-22T03:32:58;44.13;;;21.35;;
72728;SDS011;60843;52.062;4.508;2023-06-22T03:35:26;44.08;;;20.15;;
72728;SDS011;60843;52.062;4.508;2023-06-22T03:37:51;42.83;;;20.52;;
72728;SDS011;60843;52.062;4.508;2023-06-22T03:40:17;43.70;;;19.83;;
72728;SDS011;60843;52.062;4.508;2023-06-22T03:42:43;43.55;;;20.70;;
72728;SDS011;60843;52.062;4.508;2023-06-22T03:45:08;47.40;;;20.67;;
72728;SDS011;60843;52.062;4.508;2023-06-22T03:47:34;40.92;;;20.02;;
72728;SDS011;60843;52.062;4.508;2023-06-22T03:50:00;45.45;;;20.88;;
72728;SDS011;60843;52.062;4.508;2023-06-22T03:52:28;43.97;;;20.08;;
72728;SDS011;60843;52.062;4.508;2023-06-22T03:54:54;46.33;;;20.50;;
72728;SDS011;60843;52.062;4.508;2023-06-22T03:57:19;43.42;;;21.13;;
72728;SDS011;60843;52.062;4.508;2023-06-22T03:59:45;45.53;;;22.20;;
72728;SDS011;60843;52.062;4.508;2023-06-22T04:02:10;43.67;;;19.67;;
72728;SDS011;60843;52.062;4.508;2023-06-22T04:04:36;48.75;;;22.02;;
72728;SDS011;60843;52.062;4.508;2023-06-22T04:07:03;47.70;;;21.10;;
72728;SDS011;60843;52.062;4.508;2023-06-22T04:09:29;40.67;;;19.40;;
72728;SDS011;60843;52.062;4.508;2023-06-22T04:11:55;45.85;;;21.13;;
72728;SDS011;60843;52.062;4.508;2023-06-22T04:14:20;43.80;;;20.55;;
72728;SDS011;60843;52.062;4.508;2023-06-22T04:16:46;45.65;;;21.13;;
72728;SDS011;60843;52.062;4.508;2023-06-22T04:19:11;45.13;;;20.50;;
72728;SDS011;60843;52.062;4.508;2023-06-22T04:21:41;39.63;;;19.23;;
72728;SDS011;60843;52.062;4.508;2023-06-22T04:24:08;44.95;;;20.52;;
72728;SDS011;60843;52.062;4.508;2023-06-22T04:26:33;38.80;;;20.30;;
72728;SDS011;60843;52.062;4.508;2023-06-22T04:29:02;38.30;;;20.05;;
72728;SDS011;60843;52.062;4.508;2023-06-22T04:31:30;40.55;;;19.50;;
72728;SDS011;60843;52.062;4.508;2023-06-22T04:33:57;38.05;;;18.25;;
72728;SDS011;60843;52.062;4.508;2023-06-22T04:36:30;41.08;;;19.08;;
72728;SDS011;60843;52.062;4.508;2023-06-22T04:39:03;38.17;;;19.05;;
72728;SDS011;60843;52.062;4.508;2023-06-22T04:41:32;38.63;;;18.67;;
72728;SDS011;60843;52.062;4.508;2023-06-22T04:44:07;39.47;;;18.42;;
72728;SDS011;60843;52.062;4.508;2023-06-22T04:46:34;35.08;;;17.77;;
72728;SDS011;60843;52.062;4.508;2023-06-22T04:49:12;33.22;;;17.80;;
72728;SDS011;60843;52.062;4.508;2023-06-22T04:51:41;33.47;;;17.13;;
72728;SDS011;60843;52.062;4.508;2023-06-22T04:54:07;33.20;;;17.60;;
72728;SDS011;60843;52.062;4.508;2023-06-22T04:56:33;32.80;;;16.73;;
72728;SDS011;60843;52.062;4.508;2023-06-22T04:58:59;32.42;;;16.23;;
72728;SDS011;60843;52.062;4.508;2023-06-22T05:01:25;30.88;;;16.63;;
72728;SDS011;60843;52.062;4.508;2023-06-22T05:03:51;32.75;;;16.58;;
72728;SDS011;60843;52.062;4.508;2023-06-22T05:06:23;29.63;;;15.32;;
72728;SDS011;60843;52.062;4.508;2023-06-22T05:08:55;32.85;;;14.00;;
72728;SDS011;60843;52.062;4.508;2023-06-22T05:11:27;27.73;;;15.02;;
72728;SDS011;60843;52.062;4.508;2023-06-22T05:13:53;29.17;;;15.20;;
72728;SDS011;60843;52.062;4.508;2023-06-22T05:16:19;29.67;;;15.60;;
72728;SDS011;60843;52.062;4.508;2023-06-22T05:18:51;27.13;;;14.93;;
72728;SDS011;60843;52.062;4.508;2023-06-22T05:21:20;26.63;;;14.90;;
72728;SDS011;60843;52.062;4.508;2023-06-22T05:23:47;28.15;;;14.82;;
72728;SDS011;60843;52.062;4.508;2023-06-22T05:26:12;27.73;;;14.98;;
72728;SDS011;60843;52.062;4.508;2023-06-22T05:28:38;29.15;;;13.43;;
72728;SDS011;60843;52.062;4.508;2023-06-22T05:31:03;26.15;;;13.63;;
72728;SDS011;60843;52.062;4.508;2023-06-22T05:33:29;27.50;;;14.80;;
72728;SDS011;60843;52.062;4.508;2023-06-22T05:35:54;25.00;;;13.05;;
72728;SDS011;60843;52.062;4.508;2023-06-22T05:38:20;29.67;;;12.88;;
72728;SDS011;60843;52.062;4.508;2023-06-22T05:40:45;20.92;;;12.10;;
72728;SDS011;60843;52.062;4.508;2023-06-22T05:43:13;26.83;;;13.77;;
72728;SDS011;60843;52.062;4.508;2023-06-22T05:45:39;21.45;;;12.57;;
72728;SDS011;60843;52.062;4.508;2023-06-22T05:48:04;21.40;;;13.82;;
72728;SDS011;60843;52.062;4.508;2023-06-22T05:50:33;23.80;;;12.30;;
72728;SDS011;60843;52.062;4.508;2023-06-22T05:52:58;22.15;;;12.82;;
72728;SDS011;60843;52.062;4.508;2023-06-22T05:55:24;26.27;;;13.77;;
72728;SDS011;60843;52.062;4.508;2023-06-22T05:57:49;23.98;;;13.30;;
72728;SDS011;60843;52.062;4.508;2023-06-22T06:00:15;28.00;;;14.27;;
72728;SDS011;60843;52.062;4.508;2023-06-22T06:02:41;26.58;;;14.15;;
72728;SDS011;60843;52.062;4.508;2023-06-22T06:05:11;25.77;;;13.57;;
72728;SDS011;60843;52.062;4.508;2023-06-22T06:07:39;25.27;;;12.73;;
72728;SDS011;60843;52.062;4.508;2023-06-22T06:10:05;25.20;;;13.00;;
72728;SDS011;60843;52.062;4.508;2023-06-22T06:12:31;22.50;;;11.35;;
72728;SDS011;60843;52.062;4.508;2023-06-22T06:14:57;22.30;;;11.52;;
72728;SDS011;60843;52.062;4.508;2023-06-22T06:17:23;17.80;;;10.32;;
72728;SDS011;60843;52.062;4.508;2023-06-22T06:19:48;17.58;;;10.40;;
72728;SDS011;60843;52.062;4.508;2023-06-22T06:22:17;18.52;;;9.60;;
72728;SDS011;60843;52.062;4.508;2023-06-22T06:24:44;17.40;;;8.63;;
72728;SDS011;60843;52.062;4.508;2023-06-22T06:27:10;15.02;;;8.35;;
72728;SDS011;60843;52.062;4.508;2023-06-22T06:29:39;15.50;;;9.07;;
72728;SDS011;60843;52.062;4.508;2023-06-22T06:32:04;12.52;;;7.47;;
72728;SDS011;60843;52.062;4.508;2023-06-22T06:34:30;15.80;;;7.22;;
72728;SDS011;60843;52.062;4.508;2023-06-22T06:36:55;12.18;;;7.68;;
72728;SDS011;60843;52.062;4.508;2023-06-22T06:39:21;10.65;;;6.60;;
72728;SDS011;60843;52.062;4.508;2023-06-22T06:41:46;12.55;;;7.32;;
72728;SDS011;60843;52.062;4.508;2023-06-22T06:44:12;14.52;;;7.97;;
72728;SDS011;60843;52.062;4.508;2023-06-22T06:46:38;13.23;;;7.07;;
72728;SDS011;60843;52.062;4.508;2023-06-22T06:49:03;12.63;;;6.82;;
72728;SDS011;60843;52.062;4.508;2023-06-22T06:51:29;11.47;;;6.97;;
72728;SDS011;60843;52.062;4.508;2023-06-22T06:53:54;13.85;;;7.40;;
72728;SDS011;60843;52.062;4.508;2023-06-22T06:56:20;14.20;;;7.68;;
72728;SDS011;60843;52.062;4.508;2023-06-22T06:58:45;11.93;;;6.55;;
72728;SDS011;60843;52.062;4.508;2023-06-22T07:01:12;11.23;;;6.65;;
72728;SDS011;60843;52.062;4.508;2023-06-22T07:03:38;11.32;;;6.45;;
72728;SDS011;60843;52.062;4.508;2023-06-22T07:06:03;11.65;;;6.07;;
72728;SDS011;60843;52.062;4.508;2023-06-22T07:08:29;9.65;;;6.45;;
72728;SDS011;60843;52.062;4.508;2023-06-22T07:10:54;11.98;;;6.95;;
72728;SDS011;60843;52.062;4.508;2023-06-22T07:13:20;11.65;;;6.93;;
72728;SDS011;60843;52.062;4.508;2023-06-22T07:15:46;7.68;;;5.38;;
72728;SDS011;60843;52.062;4.508;2023-06-22T07:18:12;10.98;;;5.65;;
72728;SDS011;60843;52.062;4.508;2023-06-22T07:20:37;8.70;;;5.10;;
72728;SDS011;60843;52.062;4.508;2023-06-22T07:23:04;7.45;;;4.65;;
72728;SDS011;60843;52.062;4.508;2023-06-22T07:25:30;9.63;;;5.05;;
72728;SDS011;60843;52.062;4.508;2023-06-22T07:28:06;8.02;;;4.60;;
72728;SDS011;60843;52.062;4.508;2023-06-22T07:30:32;9.73;;;5.30;;
72728;SDS011;60843;52.062;4.508;2023-06-22T07:32:58;7.13;;;4.57;;
72728;SDS011;60843;52.062;4.508;2023-06-22T07:35:28;7.55;;;4.50;;
72728;SDS011;60843;52.062;4.508;2023-06-22T07:37:54;8.13;;;4.38;;
72728;SDS011;60843;52.062;4.508;2023-06-22T07:40:20;8.45;;;4.97;;
72728;SDS011;60843;52.062;4.508;2023-06-22T07:42:46;10.85;;;5.30;;
72728;SDS011;60843;52.062;4.508;2023-06-22T07:45:13;8.80;;;5.28;;
72728;SDS011;60843;52.062;4.508;2023-06-22T07:47:39;7.25;;;4.72;;
72728;SDS011;60843;52.062;4.508;2023-06-22T07:50:05;7.53;;;4.97;;
72728;SDS011;60843;52.062;4.508;2023-06-22T07:52:31;7.95;;;5.20;;
72728;SDS011;60843;52.062;4.508;2023-06-22T07:54:57;7.68;;;5.28;;
72728;SDS011;60843;52.062;4.508;2023-06-22T07:57:22;6.07;;;4.10;;
72728;SDS011;60843;52.062;4.508;2023-06-22T07:59:48;7.10;;;3.65;;
72728;SDS011;60843;52.062;4.508;2023-06-22T08:02:14;7.55;;;3.83;;
72728;SDS011;60843;52.062;4.508;2023-06-22T08:04:39;8.55;;;4.65;;
72728;SDS011;60843;52.062;4.508;2023-06-22T08:07:06;8.30;;;5.28;;
72728;SDS011;60843;52.062;4.508;2023-06-22T08:09:32;8.40;;;4.90;;
72728;SDS011;60843;52.062;4.508;2023-06-22T08:11:58;6.78;;;4.15;;
72728;SDS011;60843;52.062;4.508;2023-06-22T08:14:27;8.10;;;4.78;;
72728;SDS011;60843;52.062;4.508;2023-06-22T08:16:54;6.97;;;4.32;;
72728;SDS011;60843;52.062;4.508;2023-06-22T08:19:20;4.63;;;2.55;;
72728;SDS011;60843;52.062;4.508;2023-06-22T08:21:45;4.18;;;1.75;;
72728;SDS011;60843;52.062;4.508;2023-06-22T08:24:11;3.42;;;2.00;;
72728;SDS011;60843;52.062;4.508;2023-06-22T08:26:36;3.05;;;1.92;;
72728;SDS011;60843;52.062;4.508;2023-06-22T08:29:03;4.63;;;2.45;;
72728;SDS011;60843;52.062;4.508;2023-06-22T08:31:30;4.93;;;1.98;;
72728;SDS011;60843;52.062;4.508;2023-06-22T08:33:57;2.38;;;1.40;;
72728;SDS011;60843;52.062;4.508;2023-06-22T08:36:22;3.92;;;1.85;;
72728;SDS011;60843;52.062;4.508;2023-06-22T08:38:48;3.10;;;1.60;;
72728;SDS011;60843;52.062;4.508;2023-06-22T08:41:16;4.18;;;2.05;;
72728;SDS011;60843;52.062;4.508;2023-06-22T08:43:42;3.78;;;2.30;;
72728;SDS011;60843;52.062;4.508;2023-06-22T08:46:09;3.83;;;2.70;;
72728;SDS011;60843;52.062;4.508;2023-06-22T08:48:35;4.55;;;2.78;;
72728;SDS011;60843;52.062;4.508;2023-06-22T08:51:06;5.95;;;3.60;;
72728;SDS011;60843;52.062;4.508;2023-06-22T08:53:32;7.55;;;4.68;;
72728;SDS011;60843;52.062;4.508;2023-06-22T08:55:58;8.90;;;4.65;;
72728;SDS011;60843;52.062;4.508;2023-06-22T08:58:23;8.20;;;5.03;;
72728;SDS011;60843;52.062;4.508;2023-06-22T09:00:49;9.10;;;5.30;;
72728;SDS011;60843;52.062;4.508;2023-06-22T09:03:16;8.38;;;5.60;;
72728;SDS011;60843;52.062;4.508;2023-06-22T09:05:42;6.32;;;4.40;;
72728;SDS011;60843;52.062;4.508;2023-06-22T09:08:07;7.63;;;5.05;;
72728;SDS011;60843;52.062;4.508;2023-06-22T09:10:35;12.13;;;5.60;;
72728;SDS011;60843;52.062;4.508;2023-06-22T09:13:01;11.82;;;5.15;;
72728;SDS011;60843;52.062;4.508;2023-06-22T09:15:26;8.30;;;4.82;;
72728;SDS011;60843;52.062;4.508;2023-06-22T09:17:52;10.63;;;6.07;;
72728;SDS011;60843;52.062;4.508;2023-06-22T09:20:19;9.20;;;5.43;;
72728;SDS011;60843;52.062;4.508;2023-06-22T09:22:45;7.20;;;4.03;;
72728;SDS011;60843;52.062;4.508;2023-06-22T09:25:11;8.65;;;4.43;;
72728;SDS011;60843;52.062;4.508;2023-06-22T09:27:37;11.13;;;4.95;;
72728;SDS011;60843;52.062;4.508;2023-06-22T09:30:03;5.90;;;3.22;;
72728;SDS011;60843;52.062;4.508;2023-06-22T09:32:29;6.50;;;4.07;;
72728;SDS011;60843;52.062;4.508;2023-06-22T09:34:55;6.20;;;4.25;;
72728;SDS011;60843;52.062;4.508;2023-06-22T09:37:20;8.82;;;4.90;;
72728;SDS011;60843;52.062;4.508;2023-06-22T09:39:46;7.53;;;4.85;;
72728;SDS011;60843;52.062;4.508;2023-06-22T09:42:11;5.53;;;3.60;;
72728;SDS011;60843;52.062;4.508;2023-06-22T09:44:38;6.97;;;3.00;;
72728;SDS011;60843;52.062;4.508;2023-06-22T09:47:04;6.28;;;3.30;;
72728;SDS011;60843;52.062;4.508;2023-06-22T09:49:30;8.77;;;3.80;;
72728;SDS011;60843;52.062;4.508;2023-06-22T09:51:58;5.80;;;3.67;;
72728;SDS011;60843;52.062;4.508;2023-06-22T09:54:24;6.38;;;3.33;;
72728;SDS011;60843;52.062;4.508;2023-06-22T09:56:49;7.03;;;3.95;;
72728;SDS011;60843;52.062;4.508;2023-06-22T09:59:15;5.95;;;3.03;;
72728;SDS011;60843;52.062;4.508;2023-06-22T10:01:41;5.03;;;2.92;;
72728;SDS011;60843;52.062;4.508;2023-06-22T10:04:06;4.68;;;3.20;;
72728;SDS011;60843;52.062;4.508;2023-06-22T10:06:31;4.35;;;3.03;;
72728;SDS011;60843;52.062;4.508;2023-06-22T10:08:57;3.10;;;2.22;;
72728;SDS011;60843;52.062;4.508;2023-06-22T10:11:23;3.60;;;2.15;;
72728;SDS011;60843;52.062;4.508;2023-06-22T10:13:54;2.90;;;2.13;;
72728;SDS011;60843;52.062;4.508;2023-06-22T10:16:19;4.30;;;1.95;;
72728;SDS011;60843;52.062;4.508;2023-06-22T10:18:45;3.67;;;2.10;;
72728;SDS011;60843;52.062;4.508;2023-06-22T10:21:11;4.15;;;2.58;;
72728;SDS011;60843;52.062;4.508;2023-06-22T10:23:37;6.88;;;3.28;;
72728;SDS011;60843;52.062;4.508;2023-06-22T10:26:02;4.68;;;3.72;;
72728;SDS011;60843;52.062;4.508;2023-06-22T10:28:28;8.48;;;5.25;;
72728;SDS011;60843;52.062;4.508;2023-06-22T10:30:53;9.82;;;5.88;;
72728;SDS011;60843;52.062;4.508;2023-06-22T10:33:19;7.63;;;4.72;;
72728;SDS011;60843;52.062;4.508;2023-06-22T10:35:47;7.78;;;4.03;;
72728;SDS011;60843;52.062;4.508;2023-06-22T10:38:13;7.45;;;4.40;;
72728;SDS011;60843;52.062;4.508;2023-06-22T10:40:38;10.27;;;5.25;;
72728;SDS011;60843;52.062;4.508;2023-06-22T10:43:04;9.27;;;5.03;;
72728;SDS011;60843;52.062;4.508;2023-06-22T10:45:30;12.32;;;5.82;;
72728;SDS011;60843;52.062;4.508;2023-06-22T10:47:55;11.75;;;6.53;;
72728;SDS011;60843;52.062;4.508;2023-06-22T10:50:21;9.10;;;5.95;;
72728;SDS011;60843;52.062;4.508;2023-06-22T10:55:14;9.55;;;6.72;;
72728;SDS011;60843;52.062;4.508;2023-06-22T10:57:43;11.35;;;7.60;;
72728;SDS011;60843;52.062;4.508;2023-06-22T11:00:09;11.15;;;7.35;;
72728;SDS011;60843;52.062;4.508;2023-06-22T11:02:36;11.90;;;7.57;;
72728;SDS011;60843;52.062;4.508;2023-06-22T11:05:02;12.55;;;7.63;;
72728;SDS011;60843;52.062;4.508;2023-06-22T11:07:28;12.60;;;7.82;;
72728;SDS011;60843;52.062;4.508;2023-06-22T11:09:54;12.60;;;8.43;;
72728;SDS011;60843;52.062;4.508;2023-06-22T11:12:20;14.48;;;8.35;;
72728;SDS011;60843;52.062;4.508;2023-06-22T11:14:46;9.65;;;6.38;;
72728;SDS011;60843;52.062;4.508;2023-06-22T11:17:11;10.05;;;6.53;;
72728;SDS011;60843;52.062;4.508;2023-06-22T11:19:37;11.90;;;6.28;;
72728;SDS011;60843;52.062;4.508;2023-06-22T11:22:02;9.75;;;5.90;;
72728;SDS011;60843;52.062;4.508;2023-06-22T11:24:28;12.70;;;7.32;;
72728;SDS011;60843;52.062;4.508;2023-06-22T11:26:54;11.27;;;7.65;;
72728;SDS011;60843;52.062;4.508;2023-06-22T11:29:19;12.65;;;7.82;;
72728;SDS011;60843;52.062;4.508;2023-06-22T11:31:45;12.98;;;7.75;;
72728;SDS011;60843;52.062;4.508;2023-06-22T11:34:10;14.75;;;8.38;;
72728;SDS011;60843;52.062;4.508;2023-06-22T11:36:36;13.55;;;8.60;;
72728;SDS011;60843;52.062;4.508;2023-06-22T11:39:01;18.92;;;8.02;;
72728;SDS011;60843;52.062;4.508;2023-06-22T11:41:27;17.77;;;9.57;;
72728;SDS011;60843;52.062;4.508;2023-06-22T11:43:52;15.85;;;10.02;;
72728;SDS011;60843;52.062;4.508;2023-06-22T11:46:18;17.05;;;10.45;;
72728;SDS011;60843;52.062;4.508;2023-06-22T11:48:43;14.95;;;9.48;;
72728;SDS011;60843;52.062;4.508;2023-06-22T11:51:09;14.13;;;8.05;;
72728;SDS011;60843;52.062;4.508;2023-06-22T11:53:34;16.25;;;9.23;;
72728;SDS011;60843;52.062;4.508;2023-06-22T11:56:03;15.82;;;9.95;;
72728;SDS011;60843;52.062;4.508;2023-06-22T11:58:29;16.42;;;10.07;;
72728;SDS011;60843;52.062;4.508;2023-06-22T12:00:54;16.98;;;9.98;;
72728;SDS011;60843;52.062;4.508;2023-06-22T12:03:20;17.52;;;10.02;;
72728;SDS011;60843;52.062;4.508;2023-06-22T12:05:49;17.58;;;9.55;;
72728;SDS011;60843;52.062;4.508;2023-06-22T12:08:16;18.33;;;10.68;;
72728;SDS011;60843;52.062;4.508;2023-06-22T12:10:42;15.00;;;8.88;;
72728;SDS011;60843;52.062;4.508;2023-06-22T12:13:10;13.25;;;9.40;;
72728;SDS011;60843;52.062;4.508;2023-06-22T12:15:36;14.35;;;8.98;;
72728;SDS011;60843;52.062;4.508;2023-06-22T12:18:02;14.80;;;9.10;;
72728;SDS011;60843;52.062;4.508;2023-06-22T12:20:28;14.27;;;8.00;;
72728;SDS011;60843;52.062;4.508;2023-06-22T12:22:53;14.15;;;8.43;;
72728;SDS011;60843;52.062;4.508;2023-06-22T12:25:21;12.95;;;8.35;;
72728;SDS011;60843;52.062;4.508;2023-06-22T12:27:47;14.48;;;8.48;;
72728;SDS011;60843;52.062;4.508;2023-06-22T12:30:12;16.83;;;9.85;;
72728;SDS011;60843;52.062;4.508;2023-06-22T12:32:38;15.52;;;9.98;;
72728;SDS011;60843;52.062;4.508;2023-06-22T12:37:37;12.88;;;8.90;;
72728;SDS011;60843;52.062;4.508;2023-06-22T12:40:02;17.38;;;10.82;;
72728;SDS011;60843;52.062;4.508;2023-06-22T12:42:29;14.98;;;9.73;;
72728;SDS011;60843;52.062;4.508;2023-06-22T12:44:54;18.95;;;10.45;;
72728;SDS011;60843;52.062;4.508;2023-06-22T12:47:20;18.20;;;11.52;;
72728;SDS011;60843;52.062;4.508;2023-06-22T12:49:46;23.58;;;12.52;;
72728;SDS011;60843;52.062;4.508;2023-06-22T12:52:11;16.77;;;12.07;;
72728;SDS011;60843;52.062;4.508;2023-06-22T12:54:37;19.05;;;10.70;;
72728;SDS011;60843;52.062;4.508;2023-06-22T12:57:02;18.08;;;10.93;;
72728;SDS011;60843;52.062;4.508;2023-06-22T12:59:28;18.58;;;12.20;;
72728;SDS011;60843;52.062;4.508;2023-06-22T13:01:53;21.15;;;12.77;;
72728;SDS011;60843;52.062;4.508;2023-06-22T13:04:19;19.13;;;11.68;;
72728;SDS011;60843;52.062;4.508;2023-06-22T13:06:46;20.35;;;12.38;;
72728;SDS011;60843;52.062;4.508;2023-06-22T13:09:13;16.38;;;10.55;;
72728;SDS011;60843;52.062;4.508;2023-06-22T13:11:39;13.68;;;8.88;;
72728;SDS011;60843;52.062;4.508;2023-06-22T13:14:05;15.77;;;9.45;;
72728;SDS011;60843;52.062;4.508;2023-06-22T13:16:30;18.25;;;9.80;;
72728;SDS011;60843;52.062;4.508;2023-06-22T13:18:58;16.20;;;10.10;;
72728;SDS011;60843;52.062;4.508;2023-06-22T13:21:24;18.00;;;11.02;;
72728;SDS011;60843;52.062;4.508;2023-06-22T13:23:49;16.85;;;10.38;;
72728;SDS011;60843;52.062;4.508;2023-06-22T13:26:15;14.63;;;10.15;;
72728;SDS011;60843;52.062;4.508;2023-06-22T13:28:41;15.40;;;10.00;;
72728;SDS011;60843;52.062;4.508;2023-06-22T13:31:07;16.45;;;10.32;;
72728;SDS011;60843;52.062;4.508;2023-06-22T13:33:32;16.30;;;9.35;;
72728;SDS011;60843;52.062;4.508;2023-06-22T13:35:58;16.13;;;9.52;;
72728;SDS011;60843;52.062;4.508;2023-06-22T13:38:23;16.80;;;9.13;;
72728;SDS011;60843;52.062;4.508;2023-06-22T13:40:49;15.40;;;9.45;;
72728;SDS011;60843;52.062;4.508;2023-06-22T13:43:15;15.85;;;9.90;;
72728;SDS011;60843;52.062;4.508;2023-06-22T13:45:41;15.25;;;9.50;;
72728;SDS011;60843;52.062;4.508;2023-06-22T13:48:08;12.73;;;9.27;;
72728;SDS011;60843;52.062;4.508;2023-06-22T13:50:34;14.77;;;8.95;;
72728;SDS011;60843;52.062;4.508;2023-06-22T13:53:00;13.02;;;8.68;;
72728;SDS011;60843;52.062;4.508;2023-06-22T13:55:25;15.50;;;9.13;;
72728;SDS011;60843;52.062;4.508;2023-06-22T13:57:51;17.77;;;10.13;;
72728;SDS011;60843;52.062;4.508;2023-06-22T14:00:17;14.27;;;9.05;;
72728;SDS011;60843;52.062;4.508;2023-06-22T14:02:43;14.52;;;9.15;;
72728;SDS011;60843;52.062;4.508;2023-06-22T14:05:09;12.93;;;9.20;;
72728;SDS011;60843;52.062;4.508;2023-06-22T14:07:35;12.13;;;9.48;;
72728;SDS011;60843;52.062;4.508;2023-06-22T14:10:02;11.57;;;8.65;;
72728;SDS011;60843;52.062;4.508;2023-06-22T14:12:28;16.08;;;10.55;;
72728;SDS011;60843;52.062;4.508;2023-06-22T14:14:53;13.00;;;8.65;;
72728;SDS011;60843;52.062;4.508;2023-06-22T14:17:22;12.70;;;8.35;;
72728;SDS011;60843;52.062;4.508;2023-06-22T14:19:50;13.75;;;8.25;;
72728;SDS011;60843;52.062;4.508;2023-06-22T14:22:19;12.95;;;8.05;;
72728;SDS011;60843;52.062;4.508;2023-06-22T14:24:45;16.13;;;9.13;;
72728;SDS011;60843;52.062;4.508;2023-06-22T14:27:11;13.25;;;7.75;;
72728;SDS011;60843;52.062;4.508;2023-06-22T14:29:39;10.90;;;7.90;;
72728;SDS011;60843;52.062;4.508;2023-06-22T14:32:05;9.95;;;7.90;;
72728;SDS011;60843;52.062;4.508;2023-06-22T14:34:31;11.65;;;7.55;;
72728;SDS011;60843;52.062;4.508;2023-06-22T14:36:57;14.40;;;7.75;;